createdAt,value
2022-08-30T00:00:57.783Z,6.3
2022-08-30T00:02:06.316Z,6.6
2022-08-30T00:03:14.937Z,6.6
2022-08-30T00:04:22.952Z,6.6
2022-08-30T00:05:31.467Z,6.5
2022-08-30T00:06:39.813Z,6.5
2022-08-30T00:07:48.136Z,6.5
2022-08-30T00:08:56.664Z,7.5
2022-08-30T00:10:04.975Z,7.5
2022-08-30T00:11:13.302Z,7.5
2022-08-30T00:12:21.831Z,6.4
2022-08-30T00:13:30.152Z,6.4
2022-08-30T00:14:38.489Z,6.4
2022-08-30T00:15:47.041Z,6.5
2022-08-30T00:16:55.340Z,6.5
2022-08-30T00:18:03.650Z,6.5
2022-08-30T00:19:12.177Z,5.5
2022-08-30T00:20:20.509Z,5.5
2022-08-30T00:21:28.847Z,5.5
2022-08-30T00:22:37.401Z,6.2
2022-08-30T00:23:45.727Z,6.2
2022-08-30T00:24:54.054Z,6.2
2022-08-30T00:26:02.589Z,4.6
2022-08-30T00:27:10.903Z,4.6
2022-08-30T00:28:19.228Z,4.6
2022-08-30T00:29:27.748Z,5.4
2022-08-30T00:30:36.075Z,5.4
2022-08-30T00:31:44.391Z,5.4
2022-08-30T00:32:52.911Z,6.7
2022-08-30T00:34:01.258Z,6.7
2022-08-30T00:35:09.577Z,6.7
2022-08-30T00:36:18.112Z,7.3
2022-08-30T00:37:26.439Z,7.3
2022-08-30T00:38:34.771Z,7.3
2022-08-30T00:39:43.302Z,5.7
2022-08-30T00:40:51.663Z,5.7
2022-08-30T00:41:59.963Z,5.7
2022-08-30T00:43:08.484Z,5.2
2022-08-30T00:44:16.813Z,5.2
2022-08-30T00:45:25.133Z,5.2
2022-08-30T00:46:33.741Z,7.5
2022-08-30T00:47:41.998Z,7.5
2022-08-30T00:48:50.336Z,7.5
2022-08-30T00:49:58.879Z,5.8
2022-08-30T00:51:07.196Z,5.8
2022-08-30T00:52:15.537Z,5.8
2022-08-30T00:53:24.059Z,6.3
2022-08-30T00:54:32.390Z,6.3
2022-08-30T00:55:42.011Z,6.3
2022-08-30T00:56:49.251Z,6.6
2022-08-30T00:57:57.573Z,6.6
2022-08-30T00:59:05.894Z,6.6
2022-08-30T01:00:14.430Z,5
2022-08-30T01:01:22.805Z,5
2022-08-30T01:02:31.128Z,5
2022-08-30T01:03:39.615Z,6.9
2022-08-30T01:04:47.942Z,6.9
2022-08-30T01:05:56.306Z,6.9
2022-08-30T01:07:04.839Z,8.9
2022-08-30T01:08:13.164Z,8.9
2022-08-30T01:09:21.482Z,8.9
2022-08-30T01:10:30.018Z,6.5
2022-08-30T01:11:38.356Z,6.5
2022-08-30T01:12:46.688Z,6.5
2022-08-30T01:13:55.239Z,8.1
2022-08-30T01:15:03.560Z,8.1
2022-08-30T01:16:11.952Z,8.1
2022-08-30T01:17:21.278Z,7.7
2022-08-30T01:18:28.745Z,7.7
2022-08-30T01:19:37.067Z,7.7
2022-08-30T01:20:45.609Z,7.9
2022-08-30T01:21:53.926Z,7.9
2022-08-30T01:23:02.258Z,7.9
2022-08-30T01:24:10.788Z,6.5
2022-08-30T01:25:19.125Z,6.5
2022-08-30T01:26:27.435Z,6.5
2022-08-30T01:27:35.967Z,8
2022-08-30T01:28:44.300Z,8
2022-08-30T01:29:52.627Z,8
2022-08-30T01:31:01.237Z,5.1
2022-08-30T01:32:09.489Z,5.1
2022-08-30T01:33:17.992Z,5.1
2022-08-30T01:34:26.339Z,6.6
2022-08-30T01:35:34.674Z,6.6
2022-08-30T01:36:44.796Z,6.6
2022-08-30T01:37:51.539Z,5.3
2022-08-30T01:38:59.855Z,5.3
2022-08-30T01:40:08.251Z,5.3
2022-08-30T01:41:16.716Z,8.7
2022-08-30T01:42:25.065Z,8.7
2022-08-30T01:43:33.387Z,8.7
2022-08-30T01:44:41.929Z,6.3
2022-08-30T01:45:50.288Z,6.3
2022-08-30T01:46:58.582Z,6.3
2022-08-30T01:48:07.106Z,7.1
2022-08-30T01:49:15.425Z,7.1
2022-08-30T01:50:23.753Z,7.1
2022-08-30T01:51:32.298Z,6.2
2022-08-30T01:52:40.627Z,6.2
2022-08-30T01:53:48.952Z,6.2
2022-08-30T01:54:57.478Z,5.5
2022-08-30T01:56:05.791Z,5.5
2022-08-30T01:57:14.116Z,5.5
2022-08-30T01:58:22.659Z,6.2
2022-08-30T01:59:30.996Z,6.2
2022-08-30T02:00:39.323Z,6.2
2022-08-30T02:01:47.903Z,6.3
2022-08-30T02:02:56.182Z,6.3
2022-08-30T02:04:04.600Z,6.3
2022-08-30T02:05:13.044Z,6.4
2022-08-30T02:06:21.377Z,6.4
2022-08-30T02:07:29.707Z,6.4
2022-08-30T02:08:38.234Z,5.8
2022-08-30T02:09:46.561Z,5.8
2022-08-30T02:10:54.884Z,5.8
2022-08-30T02:12:03.427Z,6.7
2022-08-30T02:13:11.743Z,6.7
2022-08-30T02:14:21.159Z,6.7
2022-08-30T02:15:28.615Z,7.3
2022-08-30T02:16:36.963Z,7.3
2022-08-30T02:17:45.260Z,7.3
2022-08-30T02:18:53.794Z,6
2022-08-30T02:20:02.159Z,6
2022-08-30T02:21:10.496Z,6
2022-08-30T02:22:19.014Z,7
2022-08-30T02:23:27.338Z,7
2022-08-30T02:24:35.678Z,7
2022-08-30T02:25:44.228Z,7
2022-08-30T02:26:52.539Z,7
2022-08-30T02:28:00.844Z,7
2022-08-30T02:29:09.369Z,7.6
2022-08-30T02:30:17.725Z,7.6
2022-08-30T02:31:26.050Z,7.6
2022-08-30T02:32:34.587Z,6.9
2022-08-30T02:33:42.910Z,6.9
2022-08-30T02:34:51.258Z,6.9
2022-08-30T02:35:59.793Z,6.9
2022-08-30T02:37:08.114Z,6.9
2022-08-30T02:38:16.438Z,6.9
2022-08-30T02:39:24.983Z,6.3
2022-08-30T02:40:33.320Z,6.3
2022-08-30T02:41:41.627Z,6.3
2022-08-30T02:42:50.167Z,5.9
2022-08-30T02:43:58.530Z,5.9
2022-08-30T02:45:06.853Z,5.9
2022-08-30T02:46:15.456Z,5.4
2022-08-30T02:47:23.708Z,5.4
2022-08-30T02:48:32.049Z,5.4
2022-08-30T02:49:40.594Z,6.9
2022-08-30T02:50:48.921Z,6.9
2022-08-30T02:51:57.244Z,6.9
2022-08-30T02:53:05.782Z,7
2022-08-30T02:54:14.111Z,7
2022-08-30T02:55:22.443Z,7
2022-08-30T02:56:30.974Z,8.1
2022-08-30T02:57:39.312Z,8.1
2022-08-30T02:58:47.648Z,8.1
2022-08-30T02:59:56.179Z,5.9
2022-08-30T03:01:04.561Z,5.9
2022-08-30T03:02:12.849Z,5.9
2022-08-30T03:03:21.402Z,7.9
2022-08-30T03:04:29.711Z,7.9
2022-08-30T03:05:39.577Z,7.9
2022-08-30T03:06:46.575Z,6.8
2022-08-30T03:07:54.906Z,6.8
2022-08-30T03:09:03.252Z,6.8
2022-08-30T03:10:11.800Z,6.6
2022-08-30T03:11:20.114Z,6.6
2022-08-30T03:12:28.436Z,6.6
2022-08-30T03:13:36.988Z,6.8
2022-08-30T03:14:45.305Z,6.8
2022-08-30T03:15:53.625Z,6.8
2022-08-30T03:17:02.171Z,7
2022-08-30T03:18:10.505Z,7
2022-08-30T03:19:18.835Z,7
2022-08-30T03:20:27.364Z,5.9
2022-08-30T03:21:35.693Z,5.9
2022-08-30T03:22:44.020Z,5.9
2022-08-30T03:23:52.567Z,6.1
2022-08-30T03:25:00.904Z,6.1
2022-08-30T03:26:09.228Z,6.1
2022-08-30T03:27:17.768Z,5.8
2022-08-30T03:28:26.096Z,5.8
2022-08-30T03:29:34.413Z,5.8
2022-08-30T03:30:42.940Z,6.9
2022-08-30T03:31:52.792Z,6.9
2022-08-30T03:32:59.602Z,6.9
2022-08-30T03:34:08.134Z,9.6
2022-08-30T03:35:16.462Z,9.6
2022-08-30T03:36:24.787Z,9.6
2022-08-30T03:37:33.346Z,7.4
2022-08-30T03:38:41.678Z,7.4
2022-08-30T03:39:50.016Z,7.4
2022-08-30T03:40:58.552Z,7.3
2022-08-30T03:42:06.877Z,7.3
2022-08-30T03:43:15.291Z,7.3
2022-08-30T03:44:23.738Z,6.2
2022-08-30T03:45:32.163Z,6.2
2022-08-30T03:46:40.386Z,6.2
2022-08-30T03:47:48.924Z,6
2022-08-30T03:48:57.245Z,6
2022-08-30T03:50:05.565Z,6
2022-08-30T03:51:14.091Z,6
2022-08-30T03:52:22.411Z,6
2022-08-30T03:53:30.734Z,6
2022-08-30T03:54:39.273Z,8.4
2022-08-30T03:55:47.589Z,8.4
2022-08-30T03:56:55.922Z,8.4
2022-08-30T03:58:04.469Z,7.1
2022-08-30T03:59:12.790Z,7.1
2022-08-30T04:00:21.111Z,7.1
2022-08-30T04:01:29.733Z,8.5
2022-08-30T04:02:38.102Z,8.5
2022-08-30T04:03:46.322Z,8.5
2022-08-30T04:04:54.854Z,7.2
2022-08-30T04:06:03.184Z,7.2
2022-08-30T04:07:11.479Z,7.2
2022-08-30T04:08:20.016Z,6.6
2022-08-30T04:09:28.336Z,6.6
2022-08-30T04:10:36.650Z,6.6
2022-08-30T04:11:45.183Z,8.1
2022-08-30T04:12:53.517Z,8.1
2022-08-30T04:14:01.856Z,8.1
2022-08-30T04:15:10.396Z,8.8
2022-08-30T04:16:18.769Z,8.8
2022-08-30T04:17:27.066Z,8.8
2022-08-30T04:18:35.582Z,8.3
2022-08-30T04:19:43.907Z,8.3
2022-08-30T04:20:52.226Z,8.3
2022-08-30T04:22:00.751Z,6.6
2022-08-30T04:23:09.137Z,6.6
2022-08-30T04:24:17.406Z,6.6
2022-08-30T04:25:25.947Z,7.9
2022-08-30T04:26:34.278Z,7.9
2022-08-30T04:27:42.595Z,7.9
2022-08-30T04:28:51.149Z,8.8
2022-08-30T04:29:59.497Z,8.8
2022-08-30T04:31:07.901Z,8.8
2022-08-30T04:32:16.350Z,7.3
2022-08-30T04:33:24.704Z,7.3
2022-08-30T04:34:33.033Z,7.3
2022-08-30T04:35:41.571Z,7
2022-08-30T04:36:49.899Z,7
2022-08-30T04:37:58.222Z,7
2022-08-30T04:39:06.748Z,7.2
2022-08-30T04:40:15.125Z,7.2
2022-08-30T04:41:23.407Z,7.2
2022-08-30T04:42:31.934Z,8
2022-08-30T04:43:40.278Z,8
2022-08-30T04:44:48.592Z,8
2022-08-30T04:45:57.189Z,5.9
2022-08-30T04:47:05.441Z,5.9
2022-08-30T04:48:13.766Z,5.9
2022-08-30T04:49:22.284Z,10.5
2022-08-30T04:50:30.608Z,10.5
2022-08-30T04:51:38.944Z,10.5
2022-08-30T04:52:47.493Z,8.7
2022-08-30T04:53:55.820Z,8.7
2022-08-30T04:55:04.140Z,8.7
2022-08-30T04:56:12.674Z,10
2022-08-30T04:57:21.006Z,10
2022-08-30T04:58:29.547Z,10
2022-08-30T04:59:38.039Z,6.9
2022-08-30T05:00:46.384Z,6.9
2022-08-30T05:01:54.704Z,6.9
2022-08-30T05:03:03.215Z,6.4
2022-08-30T05:04:11.535Z,6.4
2022-08-30T05:05:19.859Z,6.4
2022-08-30T05:06:28.388Z,7.4
2022-08-30T05:07:36.719Z,7.4
2022-08-30T05:08:45.961Z,7.4
2022-08-30T05:09:53.553Z,8.4
2022-08-30T05:11:01.897Z,8.4
2022-08-30T05:12:10.217Z,8.4
2022-08-30T05:13:18.842Z,7.4
2022-08-30T05:14:27.088Z,7.4
2022-08-30T05:15:35.398Z,7.4
2022-08-30T05:16:43.994Z,7.1
2022-08-30T05:17:52.246Z,7.1
2022-08-30T05:19:00.566Z,7.1
2022-08-30T05:20:09.102Z,7.6
2022-08-30T05:21:17.414Z,7.6
2022-08-30T05:22:25.771Z,7.6
2022-08-30T05:23:34.303Z,8.6
2022-08-30T05:24:42.618Z,8.6
2022-08-30T05:25:50.941Z,8.6
2022-08-30T05:26:59.475Z,7.2
2022-08-30T05:28:07.799Z,7.2
2022-08-30T05:29:16.126Z,7.2
2022-08-30T05:30:24.656Z,10.3
2022-08-30T05:31:33.039Z,10.3
2022-08-30T05:32:41.306Z,10.3
2022-08-30T05:33:49.838Z,9.6
2022-08-30T05:34:58.152Z,9.6
2022-08-30T05:36:06.479Z,9.6
2022-08-30T05:37:15.037Z,7.2
2022-08-30T05:38:23.324Z,7.2
2022-08-30T05:39:45.037Z,7.2
2022-08-30T05:40:40.221Z,10.4
2022-08-30T05:41:48.487Z,10.4
2022-08-30T05:42:56.797Z,10.4
2022-08-30T05:44:05.325Z,9.8
2022-08-30T05:45:13.639Z,9.8
2022-08-30T05:46:22.125Z,9.8
2022-08-30T05:47:30.490Z,8.3
2022-08-30T05:48:38.812Z,8.3
2022-08-30T05:49:47.136Z,8.3
2022-08-30T05:50:55.656Z,10.7
2022-08-30T05:52:03.980Z,10.7
2022-08-30T05:53:12.288Z,10.7
2022-08-30T05:54:20.809Z,8.9
2022-08-30T05:55:29.127Z,8.9
2022-08-30T05:56:37.459Z,8.9
2022-08-30T05:57:45.989Z,11.4
2022-08-30T05:58:54.304Z,11.4
2022-08-30T06:00:02.625Z,11.4
2022-08-30T06:01:11.151Z,9.4
2022-08-30T06:02:19.507Z,9.4
2022-08-30T06:03:27.822Z,9.4
2022-08-30T06:04:36.354Z,7.5
2022-08-30T06:05:44.678Z,7.5
2022-08-30T06:06:53.003Z,7.5
2022-08-30T06:08:01.553Z,8.1
2022-08-30T06:09:09.873Z,8.1
2022-08-30T06:10:18.240Z,8.1
2022-08-30T06:11:26.776Z,7.7
2022-08-30T06:12:35.109Z,7.7
2022-08-30T06:13:43.433Z,7.7
2022-08-30T06:14:51.963Z,9.8
2022-08-30T06:16:00.359Z,9.8
2022-08-30T06:17:08.606Z,9.8
2022-08-30T06:18:17.266Z,6.6
2022-08-30T06:19:25.455Z,6.6
2022-08-30T06:20:33.770Z,6.6
2022-08-30T06:21:42.310Z,5.5
2022-08-30T06:22:50.631Z,5.5
2022-08-30T06:23:58.944Z,5.5
2022-08-30T06:25:07.488Z,5.7
2022-08-30T06:26:15.816Z,5.7
2022-08-30T06:27:24.142Z,5.7
2022-08-30T06:28:32.665Z,5.9
2022-08-30T06:29:40.990Z,5.9
2022-08-30T06:30:49.322Z,5.9
2022-08-30T06:31:57.845Z,8.4
2022-08-30T06:33:06.166Z,8.4
2022-08-30T06:34:14.487Z,8.4
2022-08-30T06:35:23.020Z,6.1
2022-08-30T06:36:31.339Z,6.1
2022-08-30T06:37:39.652Z,6.1
2022-08-30T06:38:48.191Z,8.1
2022-08-30T06:39:56.673Z,8.1
2022-08-30T06:41:04.816Z,8.1
2022-08-30T06:42:13.346Z,8.1
2022-08-30T06:43:21.692Z,8.1
2022-08-30T06:44:30.123Z,8.1
2022-08-30T06:45:38.545Z,6.4
2022-08-30T06:46:46.936Z,6.4
2022-08-30T06:47:55.189Z,6.4
2022-08-30T06:49:03.698Z,7.8
2022-08-30T06:50:12.238Z,7.8
2022-08-30T06:51:20.355Z,7.8
2022-08-30T06:52:29.711Z,5.7
2022-08-30T06:53:37.199Z,5.7
2022-08-30T06:54:45.518Z,5.7
2022-08-30T06:55:54.051Z,6.9
2022-08-30T06:57:02.369Z,6.9
2022-08-30T06:58:10.688Z,6.9
2022-08-30T06:59:19.226Z,7.6
2022-08-30T07:00:27.543Z,7.6
2022-08-30T07:01:35.910Z,7.6
2022-08-30T07:02:44.446Z,9.9
2022-08-30T07:03:52.710Z,9.9
2022-08-30T07:05:01.039Z,9.9
2022-08-30T07:06:09.584Z,6.3
2022-08-30T07:07:17.900Z,6.3
2022-08-30T07:08:26.228Z,6.3
2022-08-30T07:09:34.764Z,7.8
2022-08-30T07:10:43.095Z,7.8
2022-08-30T07:11:51.453Z,7.8
2022-08-30T07:12:59.987Z,6.7
2022-08-30T07:14:08.310Z,6.7
2022-08-30T07:15:16.620Z,6.7
2022-08-30T07:16:25.176Z,5.3
2022-08-30T07:17:34.801Z,5.3
2022-08-30T07:18:41.803Z,5.3
2022-08-30T07:19:50.339Z,6.7
2022-08-30T07:20:58.668Z,6.7
2022-08-30T07:22:06.992Z,6.7
2022-08-30T07:23:15.685Z,7.4
2022-08-30T07:24:23.848Z,7.4
2022-08-30T07:25:32.170Z,7.4
2022-08-30T07:26:40.692Z,6.3
2022-08-30T07:27:49.013Z,6.3
2022-08-30T07:28:57.331Z,6.3
2022-08-30T07:30:05.870Z,7.5
2022-08-30T07:31:14.204Z,7.5
2022-08-30T07:32:22.528Z,7.5
2022-08-30T07:33:31.062Z,6
2022-08-30T07:34:39.377Z,6
2022-08-30T07:35:47.703Z,6
2022-08-30T07:36:56.237Z,6.3
2022-08-30T07:38:04.560Z,6.3
2022-08-30T07:39:12.876Z,6.3
2022-08-30T07:40:21.474Z,6.2
2022-08-30T07:41:29.735Z,6.2
2022-08-30T07:42:38.041Z,6.2
2022-08-30T07:43:46.568Z,6.4
2022-08-30T07:44:56.854Z,6.4
2022-08-30T07:46:03.229Z,6.4
2022-08-30T07:47:11.749Z,6.5
2022-08-30T07:48:20.065Z,6.5
2022-08-30T07:49:28.396Z,6.5
2022-08-30T07:50:36.934Z,7.7
2022-08-30T07:51:45.277Z,7.7
2022-08-30T07:52:53.599Z,7.7
2022-08-30T07:54:02.157Z,6.2
2022-08-30T07:55:10.475Z,6.2
2022-08-30T07:56:18.795Z,6.2
2022-08-30T07:57:27.317Z,5.8
2022-08-30T07:58:36.135Z,5.8
2022-08-30T07:59:44.468Z,5.8
2022-08-30T08:00:52.999Z,6.3
2022-08-30T08:02:01.364Z,6.3
2022-08-30T08:03:09.638Z,6.3
2022-08-30T08:04:18.175Z,6.4
2022-08-30T08:05:26.501Z,6.4
2022-08-30T08:06:35.288Z,6.4
2022-08-30T08:07:43.337Z,6.6
2022-08-30T08:08:51.662Z,6.6
2022-08-30T08:09:59.988Z,6.6
2022-08-30T08:11:08.519Z,6.5
2022-08-30T08:12:16.827Z,6.5
2022-08-30T08:13:28.072Z,6.5
2022-08-30T08:14:33.672Z,6.3
2022-08-30T08:15:42.008Z,6.3
2022-08-30T08:16:50.341Z,6.3
2022-08-30T08:17:58.880Z,4.8
2022-08-30T08:19:07.195Z,4.8
2022-08-30T08:20:15.523Z,4.8
2022-08-30T08:21:24.051Z,6
2022-08-30T08:22:33.458Z,6
2022-08-30T08:23:40.704Z,6
2022-08-30T08:24:49.246Z,5.4
2022-08-30T08:25:57.578Z,5.4
2022-08-30T08:27:05.908Z,5.4
2022-08-30T08:28:14.435Z,4.6
2022-08-30T08:29:22.750Z,4.6
2022-08-30T08:30:31.084Z,4.6
2022-08-30T08:31:39.668Z,4.3
2022-08-30T08:32:47.934Z,4.3
2022-08-30T08:33:56.330Z,4.3
2022-08-30T08:35:04.768Z,5.4
2022-08-30T08:36:13.088Z,5.4
2022-08-30T08:37:21.412Z,5.4
2022-08-30T08:38:29.946Z,6.6
2022-08-30T08:39:38.262Z,6.6
2022-08-30T08:40:46.667Z,6.6
2022-08-30T08:41:55.105Z,5
2022-08-30T08:43:03.455Z,5
2022-08-30T08:44:11.778Z,5
2022-08-30T08:45:20.308Z,4.6
2022-08-30T08:46:28.705Z,4.6
2022-08-30T08:47:36.942Z,4.6
2022-08-30T08:48:59.381Z,4.8
2022-08-30T08:49:53.802Z,4.8
2022-08-30T08:51:02.837Z,4.8
2022-08-30T08:52:10.678Z,5.5
2022-08-30T08:53:30.380Z,5.5
2022-08-30T08:54:27.346Z,5.5
2022-08-30T08:55:35.896Z,8.9
2022-08-30T08:56:44.202Z,8.9
2022-08-30T08:57:52.563Z,8.9
2022-08-30T08:59:01.048Z,5
2022-08-30T09:00:09.373Z,5
2022-08-30T09:01:17.714Z,5
2022-08-30T09:02:26.227Z,5.3
2022-08-30T09:03:34.549Z,5.3
2022-08-30T09:04:42.892Z,5.3
2022-08-30T09:05:51.405Z,4.9
2022-08-30T09:06:59.719Z,4.9
2022-08-30T09:08:10.011Z,4.9
2022-08-30T09:09:16.576Z,4.7
2022-08-30T09:10:40.786Z,4.7
2022-08-30T09:11:33.233Z,4.7
2022-08-30T09:12:41.771Z,4.6
2022-08-30T09:13:50.080Z,4.6
2022-08-30T09:14:58.387Z,4.6
2022-08-30T09:16:06.986Z,5.2
2022-08-30T09:17:15.244Z,5.2
2022-08-30T09:18:23.576Z,5.2
2022-08-30T09:19:34.406Z,7.9
2022-08-30T09:20:40.470Z,7.9
2022-08-30T09:21:48.787Z,7.9
2022-08-30T09:22:57.331Z,5.2
2022-08-30T09:24:05.635Z,5.2
2022-08-30T09:25:13.968Z,5.2
2022-08-30T09:26:22.502Z,5.6
2022-08-30T09:27:30.819Z,5.6
2022-08-30T09:28:39.170Z,5.6
2022-08-30T09:29:47.713Z,5.4
2022-08-30T09:30:56.062Z,5.4
2022-08-30T09:32:22.804Z,5.4
2022-08-30T09:33:12.919Z,4.5
2022-08-30T09:34:21.247Z,4.5
2022-08-30T09:35:29.576Z,4.5
2022-08-30T09:36:38.098Z,4.8
2022-08-30T09:37:46.417Z,4.8
2022-08-30T09:38:54.735Z,4.8
2022-08-30T09:40:03.323Z,4.1
2022-08-30T09:41:11.590Z,4.1
2022-08-30T09:42:19.908Z,4.1
2022-08-30T09:43:28.551Z,4.8
2022-08-30T09:44:36.753Z,4.8
2022-08-30T09:45:45.099Z,4.8
2022-08-30T09:46:53.625Z,3.9
2022-08-30T09:48:01.969Z,3.9
2022-08-30T09:49:10.307Z,3.9
2022-08-30T09:50:18.860Z,5
2022-08-30T09:51:27.213Z,5
2022-08-30T09:52:35.552Z,5
2022-08-30T09:54:52.456Z,3.8
2022-08-30T09:56:00.793Z,3.8
2022-08-30T09:57:11.795Z,4.7
2022-08-30T09:58:17.794Z,4.7
2022-08-30T09:59:26.029Z,4.7
2022-08-30T10:00:34.598Z,4.3
2022-08-30T10:01:42.966Z,4.3
2022-08-30T10:02:51.284Z,4.3
2022-08-30T10:03:59.832Z,5.6
2022-08-30T10:05:08.177Z,5.6
2022-08-30T10:06:16.535Z,5.6
2022-08-30T10:07:28.779Z,5.7
2022-08-30T10:08:33.407Z,5.7
2022-08-30T10:09:41.763Z,5.7
2022-08-30T10:10:50.314Z,6.3
2022-08-30T10:11:58.638Z,6.3
2022-08-30T10:13:06.973Z,6.3
2022-08-30T10:14:15.540Z,5
2022-08-30T10:15:23.886Z,5
2022-08-30T10:16:32.229Z,5
2022-08-30T10:17:40.770Z,4.4
2022-08-30T10:18:49.110Z,4.4
2022-08-30T10:19:57.456Z,4.4
2022-08-30T10:21:06.151Z,4.4
2022-08-30T10:22:14.354Z,4.4
2022-08-30T10:23:22.699Z,4.4
2022-08-30T10:24:33.432Z,5.1
2022-08-30T10:25:39.603Z,5.1
2022-08-30T10:26:47.967Z,5.1
2022-08-30T10:27:56.497Z,4.8
2022-08-30T10:29:04.849Z,4.8
2022-08-30T10:30:13.181Z,4.8
2022-08-30T10:31:21.744Z,3.9
2022-08-30T10:32:30.067Z,3.9
2022-08-30T10:33:38.409Z,3.9
2022-08-30T10:34:46.967Z,4.2
2022-08-30T10:35:55.311Z,4.2
2022-08-30T10:37:03.653Z,4.2
2022-08-30T10:38:12.207Z,5.2
2022-08-30T10:39:20.562Z,5.2
2022-08-30T10:40:28.942Z,5.2
2022-08-30T10:41:37.451Z,5
2022-08-30T10:42:45.788Z,5
2022-08-30T10:43:54.130Z,5
2022-08-30T10:45:02.687Z,7
2022-08-30T10:46:11.044Z,7
2022-08-30T10:47:23.239Z,7
2022-08-30T10:48:27.925Z,5
2022-08-30T10:49:36.286Z,5
2022-08-30T10:50:44.657Z,5
2022-08-30T10:51:53.203Z,5.4
2022-08-30T10:53:01.553Z,5.4
2022-08-30T10:54:09.892Z,5.4
2022-08-30T10:55:18.435Z,3.7
2022-08-30T10:56:26.795Z,3.7
2022-08-30T10:57:35.147Z,3.7
2022-08-30T10:58:43.683Z,4.3
2022-08-30T10:59:52.021Z,4.3
2022-08-30T11:01:00.418Z,4.3
2022-08-30T11:02:08.905Z,4.2
2022-08-30T11:03:17.433Z,4.2
2022-08-30T11:04:25.581Z,4.2
2022-08-30T11:05:34.138Z,4.5
2022-08-30T11:06:42.481Z,4.5
2022-08-30T11:07:52.147Z,4.5
2022-08-30T11:08:59.355Z,5.7
2022-08-30T11:10:07.719Z,5.7
2022-08-30T11:11:16.055Z,5.7
2022-08-30T11:12:24.593Z,6.8
2022-08-30T11:13:32.926Z,6.8
2022-08-30T11:14:41.270Z,6.8
2022-08-30T11:15:49.833Z,4.6
2022-08-30T11:16:58.168Z,4.6
2022-08-30T11:18:06.515Z,4.6
2022-08-30T11:19:15.061Z,4.1
2022-08-30T11:20:23.405Z,4.1
2022-08-30T11:21:31.750Z,4.1
2022-08-30T11:22:40.306Z,5.6
2022-08-30T11:23:48.655Z,5.6
2022-08-30T11:24:56.997Z,5.6
2022-08-30T11:26:05.552Z,5.8
2022-08-30T11:27:13.879Z,5.8
2022-08-30T11:28:22.230Z,5.8
2022-08-30T11:29:30.897Z,5.4
2022-08-30T11:30:39.120Z,5.4
2022-08-30T11:31:47.618Z,5.4
2022-08-30T11:32:56.000Z,4.1
2022-08-30T11:34:04.354Z,4.1
2022-08-30T11:35:12.698Z,4.1
2022-08-30T11:36:21.240Z,5.1
2022-08-30T11:37:29.597Z,5.1
2022-08-30T11:38:37.933Z,5.1
2022-08-30T11:39:46.490Z,5.2
2022-08-30T11:40:54.832Z,5.2
2022-08-30T11:42:03.163Z,5.2
2022-08-30T11:43:11.757Z,5.5
2022-08-30T11:44:20.065Z,5.5
2022-08-30T11:45:28.639Z,5.5
2022-08-30T11:46:36.940Z,4.8
2022-08-30T11:47:45.279Z,4.8
2022-08-30T11:48:55.369Z,4.8
2022-08-30T11:50:02.184Z,4.6
2022-08-30T11:51:10.516Z,4.6
2022-08-30T11:52:26.814Z,4.6
2022-08-30T11:53:27.419Z,4.7
2022-08-30T11:54:35.763Z,4.7
2022-08-30T11:55:44.099Z,4.7
2022-08-30T11:56:52.644Z,5.2
2022-08-30T11:58:00.998Z,5.2
2022-08-30T11:59:09.807Z,5.2
2022-08-30T12:00:17.910Z,6.7
2022-08-30T12:01:42.172Z,6.7
2022-08-30T12:02:34.655Z,6.7
2022-08-30T12:03:43.357Z,3.8
2022-08-30T12:04:51.701Z,3.8
2022-08-30T12:06:00.258Z,3.8
2022-08-30T12:07:08.888Z,6.1
2022-08-30T12:08:17.412Z,6.1
2022-08-30T12:09:25.565Z,6.1
2022-08-30T12:10:34.129Z,5.9
2022-08-30T12:11:42.471Z,5.9
2022-08-30T12:12:50.814Z,5.9
2022-08-30T12:13:59.359Z,7.4
2022-08-30T12:15:07.700Z,7.4
2022-08-30T12:16:16.080Z,7.4
2022-08-30T12:17:24.592Z,33.200001
2022-08-30T12:18:32.927Z,33.200001
2022-08-30T12:19:41.454Z,33.200001
2022-08-30T12:20:49.826Z,5
2022-08-30T12:21:58.521Z,5
2022-08-30T12:23:06.876Z,5
2022-08-30T12:24:15.423Z,5.2
2022-08-30T12:25:23.762Z,5.2
2022-08-30T12:26:32.099Z,5.2
2022-08-30T12:27:40.654Z,5
2022-08-30T12:28:48.997Z,5
2022-08-30T12:29:57.347Z,5
2022-08-30T12:31:05.907Z,5.8
2022-08-30T12:32:14.323Z,5.8
2022-08-30T12:33:22.608Z,5.8
2022-08-30T12:34:31.163Z,5.6
2022-08-30T12:35:39.495Z,5.6
2022-08-30T12:36:47.839Z,5.6
2022-08-30T12:37:56.397Z,4.1
2022-08-30T12:39:05.600Z,4.1
2022-08-30T12:40:13.147Z,4.1
2022-08-30T12:41:21.628Z,3.5
2022-08-30T12:42:29.976Z,3.5
2022-08-30T12:43:38.680Z,3.5
2022-08-30T12:44:46.880Z,5.3
2022-08-30T12:45:55.260Z,5.3
2022-08-30T12:47:03.550Z,5.3
2022-08-30T12:48:12.209Z,3.3
2022-08-30T12:49:20.457Z,3.3
2022-08-30T12:50:28.798Z,3.3
2022-08-30T12:51:37.347Z,4.1
2022-08-30T12:52:45.670Z,4.1
2022-08-30T12:53:54.018Z,4.1
2022-08-30T12:55:02.573Z,6.5
2022-08-30T12:56:10.924Z,6.5
2022-08-30T12:57:34.399Z,6.5
2022-08-30T12:58:27.787Z,4.6
2022-08-30T12:59:36.145Z,4.6
2022-08-30T13:00:44.556Z,4.6
2022-08-30T13:01:56.171Z,4.3
2022-08-30T13:03:01.373Z,4.3
2022-08-30T13:04:09.716Z,4.3
2022-08-30T13:05:18.271Z,5.7
2022-08-30T13:06:26.617Z,5.7
2022-08-30T13:07:35.395Z,5.7
2022-08-30T13:08:43.519Z,4.7
2022-08-30T13:09:51.853Z,4.7
2022-08-30T13:11:02.382Z,4.7
2022-08-30T13:12:08.734Z,5
2022-08-30T13:13:17.211Z,5
2022-08-30T13:14:25.453Z,5
2022-08-30T13:15:33.986Z,4.8
2022-08-30T13:16:45.263Z,4.8
2022-08-30T13:17:50.677Z,4.8
2022-08-30T13:18:59.250Z,6.2
2022-08-30T13:20:07.579Z,6.2
2022-08-30T13:21:15.925Z,6.2
2022-08-30T13:22:24.474Z,4.4
2022-08-30T13:23:32.820Z,4.4
2022-08-30T13:24:41.152Z,4.4
2022-08-30T13:25:49.698Z,13.4
2022-08-30T13:26:58.040Z,13.4
2022-08-30T13:28:06.379Z,13.4
2022-08-30T13:29:14.954Z,4.2
2022-08-30T13:30:23.301Z,4.2
2022-08-30T13:31:31.729Z,4.2
2022-08-30T13:32:40.235Z,6.3
2022-08-30T13:33:48.541Z,6.3
2022-08-30T13:34:56.892Z,6.3
2022-08-30T13:36:05.430Z,5.6
2022-08-30T13:38:22.199Z,5.6
2022-08-30T13:39:30.745Z,4.2
2022-08-30T13:40:39.145Z,4.2
2022-08-30T13:41:47.439Z,4.2
2022-08-30T13:42:55.993Z,4.3
2022-08-30T13:44:12.857Z,4.3
2022-08-30T13:46:21.258Z,6.2
2022-08-30T13:47:33.374Z,6.2
2022-08-30T13:48:37.922Z,6.2
2022-08-30T13:49:46.475Z,5.9
2022-08-30T13:50:54.813Z,5.9
2022-08-30T13:52:19.653Z,5.9
2022-08-30T13:53:11.893Z,5.6
2022-08-30T13:54:20.032Z,5.6
2022-08-30T13:55:28.371Z,5.6
2022-08-30T13:56:36.922Z,4.3
2022-08-30T13:58:00.662Z,4.3
2022-08-30T13:58:53.608Z,4.3
2022-08-30T14:00:02.159Z,4.8
2022-08-30T14:01:10.711Z,4.8
2022-08-30T14:02:18.882Z,4.8
2022-08-30T14:03:27.468Z,5.2
2022-08-30T14:04:35.829Z,5.2
2022-08-30T14:06:00.737Z,5.2
2022-08-30T14:07:21.097Z,4.8
2022-08-30T14:08:01.025Z,4.8
2022-08-30T14:09:09.754Z,4.8
2022-08-30T14:10:34.472Z,5
2022-08-30T14:11:26.253Z,5
2022-08-30T14:14:51.894Z,4.7
2022-08-30T14:17:08.415Z,6.1
2022-08-30T14:18:17.935Z,6.1
2022-08-30T14:19:25.097Z,6.1
2022-08-30T14:20:33.635Z,5.1
2022-08-30T14:21:41.971Z,5.1
2022-08-30T14:22:50.310Z,5.1
2022-08-30T14:23:58.885Z,4.9
2022-08-30T14:25:07.235Z,4.9
2022-08-30T14:26:15.562Z,4.9
2022-08-30T14:27:24.115Z,5.8
2022-08-30T14:28:32.462Z,5.8
2022-08-30T14:29:40.797Z,5.8
2022-08-30T15:03:35.127Z,0
2022-08-30T15:04:43.420Z,0
2022-08-30T15:05:52.956Z,0
2022-08-30T15:07:00.302Z,4.4
2022-08-30T15:08:08.639Z,4.4
2022-08-30T15:09:16.980Z,4.4
2022-08-30T15:10:25.520Z,4.9
2022-08-30T15:11:33.861Z,4.9
2022-08-30T15:12:42.195Z,4.9
2022-08-30T15:13:52.861Z,6.4
2022-08-30T15:14:59.097Z,6.4
2022-08-30T15:16:07.466Z,6.4
2022-08-30T15:17:15.996Z,5
2022-08-30T15:18:24.350Z,5
2022-08-30T15:19:32.681Z,5
2022-08-30T15:20:41.238Z,5.7
2022-08-30T15:21:49.575Z,5.7
2022-08-30T15:22:57.915Z,5.7
2022-08-30T15:24:06.478Z,5
2022-08-30T15:25:14.817Z,5
2022-08-30T15:26:23.167Z,5
2022-08-30T15:27:31.709Z,4.8
2022-08-30T15:28:40.060Z,4.8
2022-08-30T15:29:48.402Z,4.8
2022-08-30T15:30:56.942Z,4.9
2022-08-30T15:32:05.404Z,4.9
2022-08-30T15:33:13.629Z,4.9
2022-08-30T15:34:22.179Z,4.5
2022-08-30T15:35:30.515Z,4.5
2022-08-30T15:36:38.850Z,4.5
2022-08-30T15:37:47.407Z,3.7
2022-08-30T15:38:55.756Z,3.7
2022-08-30T15:40:04.626Z,3.7
2022-08-30T15:41:12.702Z,5.3
2022-08-30T15:42:21.043Z,5.3
2022-08-30T15:43:29.386Z,5.3
2022-08-30T15:44:37.928Z,3.8
2022-08-30T15:45:46.262Z,3.8
2022-08-30T15:46:54.686Z,3.8
2022-08-30T15:48:03.186Z,4.7
2022-08-30T15:49:11.540Z,4.7
2022-08-30T15:50:19.878Z,4.7
2022-08-30T15:51:28.444Z,5.5
2022-08-30T15:52:36.792Z,5.5
2022-08-30T15:53:45.118Z,5.5
2022-08-30T15:54:53.674Z,3.3
2022-08-30T15:56:02.015Z,3.3
2022-08-30T15:57:10.351Z,3.3
2022-08-30T15:58:18.923Z,4.2
2022-08-30T15:59:27.269Z,4.2
2022-08-30T16:00:35.676Z,4.2
2022-08-30T16:01:44.378Z,5.9
2022-08-30T16:02:52.493Z,5.9
2022-08-30T16:04:00.832Z,5.9
2022-08-30T16:05:09.397Z,4.3
2022-08-30T16:06:17.724Z,4.3
2022-08-30T16:07:26.060Z,4.3
2022-08-30T16:08:34.614Z,3.9
2022-08-30T16:09:42.953Z,3.9
2022-08-30T16:10:51.988Z,3.9
2022-08-30T16:11:59.870Z,4.8
2022-08-30T16:13:08.229Z,4.8
2022-08-30T16:14:16.568Z,4.8
2022-08-30T16:15:25.113Z,5
2022-08-30T16:16:33.484Z,5
2022-08-30T16:17:41.805Z,5
2022-08-30T16:18:54.034Z,4.4
2022-08-30T16:19:59.091Z,4.4
2022-08-30T16:21:07.055Z,4.4
2022-08-30T16:22:15.838Z,3.8
2022-08-30T16:23:23.951Z,3.8
2022-08-30T16:24:32.290Z,3.8
2022-08-30T16:25:41.475Z,4.3
2022-08-30T16:26:49.172Z,4.3